sensor_id;sensor_type;location;lat;lon;timestamp;P1;durP1;ratioP1;P2;durP2;ratioP2
4638;SDS011;2332;38.646;-9.154;2023-04-06T00:00:03;5.27;;;2.37;;
4638;SDS011;2332;38.646;-9.154;2023-04-06T00:02:30;3.70;;;2.10;;
4638;SDS011;2332;38.646;-9.154;2023-04-06T00:04:55;6.70;;;1.87;;
4638;SDS011;2332;38.646;-9.154;2023-04-06T00:07:21;2.33;;;2.13;;
4638;SDS011;2332;38.646;-9.154;2023-04-06T00:09:46;2.70;;;2.50;;
4638;SDS011;2332;38.646;-9.154;2023-04-06T00:12:12;4.50;;;2.10;;
4638;SDS011;2332;38.646;-9.154;2023-04-06T00:14:37;7.87;;;2.10;;
4638;SDS011;2332;38.646;-9.154;2023-04-06T00:17:02;8.10;;;2.33;;
4638;SDS011;2332;38.646;-9.154;2023-04-06T00:19:28;3.00;;;1.90;;
4638;SDS011;2332;38.646;-9.154;2023-04-06T00:21:53;3.00;;;1.97;;
4638;SDS011;2332;38.646;-9.154;2023-04-06T00:24:19;2.90;;;1.90;;
4638;SDS011;2332;38.646;-9.154;2023-04-06T00:26:44;5.77;;;2.23;;
4638;SDS011;2332;38.646;-9.154;2023-04-06T00:29:10;1.80;;;1.57;;
4638;SDS011;2332;38.646;-9.154;2023-04-06T00:31:35;2.70;;;1.73;;
4638;SDS011;2332;38.646;-9.154;2023-04-06T00:34:01;4.30;;;2.07;;
4638;SDS011;2332;38.646;-9.154;2023-04-06T00:36:26;8.33;;;2.40;;
4638;SDS011;2332;38.646;-9.154;2023-04-06T00:38:51;3.30;;;1.77;;
4638;SDS011;2332;38.646;-9.154;2023-04-06T00:41:17;4.87;;;1.80;;
4638;SDS011;2332;38.646;-9.154;2023-04-06T00:43:42;3.83;;;2.03;;
4638;SDS011;2332;38.646;-9.154;2023-04-06T00:46:08;7.30;;;2.37;;
4638;SDS011;2332;38.646;-9.154;2023-04-06T00:48:33;4.90;;;1.90;;
4638;SDS011;2332;38.646;-9.154;2023-04-06T00:50:59;4.70;;;2.10;;
4638;SDS011;2332;38.646;-9.154;2023-04-06T00:53:24;4.20;;;1.73;;
4638;SDS011;2332;38.646;-9.154;2023-04-06T00:55:50;2.37;;;1.80;;
4638;SDS011;2332;38.646;-9.154;2023-04-06T00:58:18;3.40;;;2.00;;
4638;SDS011;2332;38.646;-9.154;2023-04-06T01:00:44;7.60;;;1.70;;
4638;SDS011;2332;38.646;-9.154;2023-04-06T01:03:10;3.30;;;1.80;;
4638;SDS011;2332;38.646;-9.154;2023-04-06T01:05:35;8.60;;;2.20;;
4638;SDS011;2332;38.646;-9.154;2023-04-06T01:08:05;2.43;;;1.87;;
4638;SDS011;2332;38.646;-9.154;2023-04-06T01:10:30;3.67;;;2.10;;
4638;SDS011;2332;38.646;-9.154;2023-04-06T01:12:56;13.50;;;2.00;;
4638;SDS011;2332;38.646;-9.154;2023-04-06T01:15:21;2.20;;;1.90;;
4638;SDS011;2332;38.646;-9.154;2023-04-06T01:17:50;2.30;;;1.97;;
4638;SDS011;2332;38.646;-9.154;2023-04-06T01:20:19;2.80;;;2.00;;
4638;SDS011;2332;38.646;-9.154;2023-04-06T01:22:44;2.67;;;1.83;;
4638;SDS011;2332;38.646;-9.154;2023-04-06T01:25:10;5.20;;;2.20;;
4638;SDS011;2332;38.646;-9.154;2023-04-06T01:27:35;3.00;;;1.80;;
4638;SDS011;2332;38.646;-9.154;2023-04-06T01:30:01;4.67;;;1.83;;
4638;SDS011;2332;38.646;-9.154;2023-04-06T01:32:26;3.63;;;2.00;;
4638;SDS011;2332;38.646;-9.154;2023-04-06T01:34:52;8.00;;;1.80;;
4638;SDS011;2332;38.646;-9.154;2023-04-06T01:37:17;5.80;;;2.10;;
4638;SDS011;2332;38.646;-9.154;2023-04-06T01:39:43;3.93;;;1.60;;
4638;SDS011;2332;38.646;-9.154;2023-04-06T01:42:08;2.30;;;1.77;;
4638;SDS011;2332;38.646;-9.154;2023-04-06T01:44:34;4.87;;;1.90;;
4638;SDS011;2332;38.646;-9.154;2023-04-06T01:46:59;9.80;;;1.60;;
4638;SDS011;2332;38.646;-9.154;2023-04-06T01:49:25;3.23;;;2.10;;
4638;SDS011;2332;38.646;-9.154;2023-04-06T01:51:50;5.90;;;2.00;;
4638;SDS011;2332;38.646;-9.154;2023-04-06T01:54:16;3.80;;;1.70;;
4638;SDS011;2332;38.646;-9.154;2023-04-06T01:56:42;3.57;;;2.30;;
4638;SDS011;2332;38.646;-9.154;2023-04-06T01:59:07;6.40;;;2.00;;
4638;SDS011;2332;38.646;-9.154;2023-04-06T02:01:33;2.97;;;1.67;;
4638;SDS011;2332;38.646;-9.154;2023-04-06T02:03:58;5.30;;;1.63;;
4638;SDS011;2332;38.646;-9.154;2023-04-06T02:06:23;2.40;;;1.50;;
4638;SDS011;2332;38.646;-9.154;2023-04-06T02:08:49;6.90;;;1.80;;
4638;SDS011;2332;38.646;-9.154;2023-04-06T02:11:15;5.80;;;2.00;;
4638;SDS011;2332;38.646;-9.154;2023-04-06T02:13:40;3.60;;;2.20;;
4638;SDS011;2332;38.646;-9.154;2023-04-06T02:16:06;3.70;;;1.83;;
4638;SDS011;2332;38.646;-9.154;2023-04-06T02:18:31;9.67;;;2.93;;
4638;SDS011;2332;38.646;-9.154;2023-04-06T02:20:56;4.50;;;1.70;;
4638;SDS011;2332;38.646;-9.154;2023-04-06T02:23:22;3.27;;;2.03;;
4638;SDS011;2332;38.646;-9.154;2023-04-06T02:25:47;8.90;;;2.03;;
4638;SDS011;2332;38.646;-9.154;2023-04-06T02:28:12;2.77;;;1.80;;
4638;SDS011;2332;38.646;-9.154;2023-04-06T02:30:38;3.83;;;2.37;;
4638;SDS011;2332;38.646;-9.154;2023-04-06T02:33:03;4.83;;;2.10;;
4638;SDS011;2332;38.646;-9.154;2023-04-06T02:35:29;3.30;;;2.40;;
4638;SDS011;2332;38.646;-9.154;2023-04-06T02:37:55;8.37;;;2.33;;
4638;SDS011;2332;38.646;-9.154;2023-04-06T02:40:20;4.80;;;2.30;;
4638;SDS011;2332;38.646;-9.154;2023-04-06T02:42:46;6.03;;;2.30;;
4638;SDS011;2332;38.646;-9.154;2023-04-06T02:45:11;2.70;;;1.93;;
4638;SDS011;2332;38.646;-9.154;2023-04-06T02:47:36;6.03;;;2.17;;
4638;SDS011;2332;38.646;-9.154;2023-04-06T02:50:02;3.87;;;2.20;;
4638;SDS011;2332;38.646;-9.154;2023-04-06T02:52:28;6.00;;;2.47;;
4638;SDS011;2332;38.646;-9.154;2023-04-06T02:54:53;3.27;;;1.77;;
4638;SDS011;2332;38.646;-9.154;2023-04-06T02:57:18;7.40;;;2.60;;
4638;SDS011;2332;38.646;-9.154;2023-04-06T02:59:44;5.83;;;2.60;;
4638;SDS011;2332;38.646;-9.154;2023-04-06T03:02:09;3.60;;;2.27;;
4638;SDS011;2332;38.646;-9.154;2023-04-06T03:04:35;2.77;;;1.93;;
4638;SDS011;2332;38.646;-9.154;2023-04-06T03:07:00;4.63;;;2.50;;
4638;SDS011;2332;38.646;-9.154;2023-04-06T03:09:26;5.90;;;2.70;;
4638;SDS011;2332;38.646;-9.154;2023-04-06T03:11:52;3.03;;;2.60;;
4638;SDS011;2332;38.646;-9.154;2023-04-06T03:14:17;4.23;;;2.70;;
4638;SDS011;2332;38.646;-9.154;2023-04-06T03:16:46;3.10;;;2.43;;
4638;SDS011;2332;38.646;-9.154;2023-04-06T03:19:12;6.77;;;3.23;;
4638;SDS011;2332;38.646;-9.154;2023-04-06T03:21:37;7.63;;;3.17;;
4638;SDS011;2332;38.646;-9.154;2023-04-06T03:24:03;15.03;;;4.07;;
4638;SDS011;2332;38.646;-9.154;2023-04-06T03:26:28;13.60;;;3.97;;
4638;SDS011;2332;38.646;-9.154;2023-04-06T03:28:53;10.43;;;3.10;;
4638;SDS011;2332;38.646;-9.154;2023-04-06T03:31:19;15.83;;;4.20;;
4638;SDS011;2332;38.646;-9.154;2023-04-06T03:33:44;14.57;;;3.80;;
4638;SDS011;2332;38.646;-9.154;2023-04-06T03:36:10;17.27;;;4.17;;
4638;SDS011;2332;38.646;-9.154;2023-04-06T03:38:35;10.57;;;3.33;;
4638;SDS011;2332;38.646;-9.154;2023-04-06T03:41:01;22.73;;;4.10;;
4638;SDS011;2332;38.646;-9.154;2023-04-06T03:43:26;12.10;;;3.60;;
4638;SDS011;2332;38.646;-9.154;2023-04-06T03:45:52;6.20;;;3.10;;
4638;SDS011;2332;38.646;-9.154;2023-04-06T03:48:17;5.27;;;2.90;;
4638;SDS011;2332;38.646;-9.154;2023-04-06T03:50:42;12.43;;;3.33;;
4638;SDS011;2332;38.646;-9.154;2023-04-06T03:53:08;11.63;;;4.03;;
4638;SDS011;2332;38.646;-9.154;2023-04-06T03:55:33;6.57;;;2.90;;
4638;SDS011;2332;38.646;-9.154;2023-04-06T03:57:59;6.07;;;3.40;;
4638;SDS011;2332;38.646;-9.154;2023-04-06T04:00:25;12.57;;;3.50;;
4638;SDS011;2332;38.646;-9.154;2023-04-06T04:02:53;9.87;;;4.23;;
4638;SDS011;2332;38.646;-9.154;2023-04-06T04:05:18;14.20;;;3.23;;
4638;SDS011;2332;38.646;-9.154;2023-04-06T04:07:44;8.60;;;3.40;;
4638;SDS011;2332;38.646;-9.154;2023-04-06T04:10:09;5.80;;;3.10;;
4638;SDS011;2332;38.646;-9.154;2023-04-06T04:12:35;5.90;;;3.40;;
4638;SDS011;2332;38.646;-9.154;2023-04-06T04:15:01;8.20;;;4.10;;
4638;SDS011;2332;38.646;-9.154;2023-04-06T04:17:28;6.07;;;4.00;;
4638;SDS011;2332;38.646;-9.154;2023-04-06T04:19:53;12.53;;;4.10;;
4638;SDS011;2332;38.646;-9.154;2023-04-06T04:22:18;8.53;;;4.50;;
4638;SDS011;2332;38.646;-9.154;2023-04-06T04:24:44;12.60;;;4.40;;
4638;SDS011;2332;38.646;-9.154;2023-04-06T04:27:09;4.57;;;4.17;;
4638;SDS011;2332;38.646;-9.154;2023-04-06T04:29:34;7.77;;;4.17;;
4638;SDS011;2332;38.646;-9.154;2023-04-06T04:32:00;8.70;;;4.03;;
4638;SDS011;2332;38.646;-9.154;2023-04-06T04:34:25;13.23;;;4.30;;
4638;SDS011;2332;38.646;-9.154;2023-04-06T04:36:51;8.63;;;4.03;;
4638;SDS011;2332;38.646;-9.154;2023-04-06T04:39:17;8.83;;;3.73;;
4638;SDS011;2332;38.646;-9.154;2023-04-06T04:41:42;9.57;;;3.40;;
4638;SDS011;2332;38.646;-9.154;2023-04-06T04:44:08;8.00;;;3.97;;
4638;SDS011;2332;38.646;-9.154;2023-04-06T04:46:33;11.70;;;4.10;;
4638;SDS011;2332;38.646;-9.154;2023-04-06T04:48:59;10.00;;;4.53;;
4638;SDS011;2332;38.646;-9.154;2023-04-06T04:51:24;4.67;;;3.33;;
4638;SDS011;2332;38.646;-9.154;2023-04-06T04:53:50;9.83;;;4.50;;
4638;SDS011;2332;38.646;-9.154;2023-04-06T04:56:18;7.83;;;4.20;;
4638;SDS011;2332;38.646;-9.154;2023-04-06T04:58:44;6.97;;;3.83;;
4638;SDS011;2332;38.646;-9.154;2023-04-06T05:01:09;7.30;;;3.70;;
4638;SDS011;2332;38.646;-9.154;2023-04-06T05:03:36;8.53;;;4.00;;
4638;SDS011;2332;38.646;-9.154;2023-04-06T05:06:04;8.17;;;3.93;;
4638;SDS011;2332;38.646;-9.154;2023-04-06T05:08:29;8.87;;;3.60;;
4638;SDS011;2332;38.646;-9.154;2023-04-06T05:10:55;12.07;;;4.10;;
4638;SDS011;2332;38.646;-9.154;2023-04-06T05:13:20;11.60;;;4.03;;
4638;SDS011;2332;38.646;-9.154;2023-04-06T05:15:45;9.50;;;3.90;;
4638;SDS011;2332;38.646;-9.154;2023-04-06T05:18:11;14.47;;;5.07;;
4638;SDS011;2332;38.646;-9.154;2023-04-06T05:20:37;12.93;;;4.93;;
4638;SDS011;2332;38.646;-9.154;2023-04-06T05:23:03;8.70;;;4.50;;
4638;SDS011;2332;38.646;-9.154;2023-04-06T05:25:28;10.83;;;4.93;;
4638;SDS011;2332;38.646;-9.154;2023-04-06T05:27:53;8.80;;;4.93;;
4638;SDS011;2332;38.646;-9.154;2023-04-06T05:30:20;8.47;;;4.97;;
4638;SDS011;2332;38.646;-9.154;2023-04-06T05:32:45;9.33;;;4.03;;
4638;SDS011;2332;38.646;-9.154;2023-04-06T05:35:11;8.10;;;4.30;;
4638;SDS011;2332;38.646;-9.154;2023-04-06T05:37:37;10.70;;;4.40;;
4638;SDS011;2332;38.646;-9.154;2023-04-06T05:40:02;17.97;;;4.33;;
4638;SDS011;2332;38.646;-9.154;2023-04-06T05:42:35;10.47;;;4.30;;
4638;SDS011;2332;38.646;-9.154;2023-04-06T05:45:01;4.70;;;3.80;;
4638;SDS011;2332;38.646;-9.154;2023-04-06T05:47:27;14.13;;;4.20;;
4638;SDS011;2332;38.646;-9.154;2023-04-06T05:49:52;9.60;;;4.40;;
4638;SDS011;2332;38.646;-9.154;2023-04-06T05:52:17;9.17;;;4.90;;
4638;SDS011;2332;38.646;-9.154;2023-04-06T05:54:43;17.93;;;5.07;;
4638;SDS011;2332;38.646;-9.154;2023-04-06T05:57:08;10.73;;;4.53;;
4638;SDS011;2332;38.646;-9.154;2023-04-06T05:59:33;13.23;;;4.57;;
4638;SDS011;2332;38.646;-9.154;2023-04-06T06:01:59;13.20;;;5.30;;
4638;SDS011;2332;38.646;-9.154;2023-04-06T06:04:26;9.10;;;4.70;;
4638;SDS011;2332;38.646;-9.154;2023-04-06T06:06:54;16.50;;;4.67;;
4638;SDS011;2332;38.646;-9.154;2023-04-06T06:09:20;14.73;;;5.23;;
4638;SDS011;2332;38.646;-9.154;2023-04-06T06:11:48;11.23;;;4.63;;
4638;SDS011;2332;38.646;-9.154;2023-04-06T06:14:13;14.13;;;6.03;;
4638;SDS011;2332;38.646;-9.154;2023-04-06T06:16:40;8.43;;;4.13;;
4638;SDS011;2332;38.646;-9.154;2023-04-06T06:19:05;12.70;;;5.30;;
4638;SDS011;2332;38.646;-9.154;2023-04-06T06:21:31;11.30;;;4.60;;
4638;SDS011;2332;38.646;-9.154;2023-04-06T06:23:56;9.80;;;4.80;;
4638;SDS011;2332;38.646;-9.154;2023-04-06T06:26:21;15.50;;;5.27;;
4638;SDS011;2332;38.646;-9.154;2023-04-06T06:28:47;9.97;;;5.17;;
4638;SDS011;2332;38.646;-9.154;2023-04-06T06:31:12;11.73;;;4.33;;
4638;SDS011;2332;38.646;-9.154;2023-04-06T06:33:37;6.47;;;4.20;;
4638;SDS011;2332;38.646;-9.154;2023-04-06T06:36:03;12.30;;;5.13;;
4638;SDS011;2332;38.646;-9.154;2023-04-06T06:38:28;11.13;;;4.87;;
4638;SDS011;2332;38.646;-9.154;2023-04-06T06:40:54;6.80;;;4.30;;
4638;SDS011;2332;38.646;-9.154;2023-04-06T06:43:20;7.57;;;5.20;;
4638;SDS011;2332;38.646;-9.154;2023-04-06T06:45:45;14.80;;;4.73;;
4638;SDS011;2332;38.646;-9.154;2023-04-06T06:48:10;10.83;;;5.03;;
4638;SDS011;2332;38.646;-9.154;2023-04-06T06:50:36;8.80;;;3.90;;
4638;SDS011;2332;38.646;-9.154;2023-04-06T06:53:01;10.10;;;3.93;;
4638;SDS011;2332;38.646;-9.154;2023-04-06T06:55:26;10.50;;;4.40;;
4638;SDS011;2332;38.646;-9.154;2023-04-06T06:57:53;13.50;;;4.53;;
4638;SDS011;2332;38.646;-9.154;2023-04-06T07:00:18;12.53;;;5.03;;
4638;SDS011;2332;38.646;-9.154;2023-04-06T07:02:46;13.33;;;4.83;;
4638;SDS011;2332;38.646;-9.154;2023-04-06T07:05:11;10.83;;;3.93;;
4638;SDS011;2332;38.646;-9.154;2023-04-06T07:07:36;6.50;;;4.70;;
4638;SDS011;2332;38.646;-9.154;2023-04-06T07:10:02;16.73;;;9.50;;
4638;SDS011;2332;38.646;-9.154;2023-04-06T07:12:27;10.90;;;6.30;;
4638;SDS011;2332;38.646;-9.154;2023-04-06T07:14:53;14.10;;;5.27;;
4638;SDS011;2332;38.646;-9.154;2023-04-06T07:17:18;8.13;;;4.20;;
4638;SDS011;2332;38.646;-9.154;2023-04-06T07:19:43;7.57;;;4.33;;
4638;SDS011;2332;38.646;-9.154;2023-04-06T07:22:10;8.60;;;4.60;;
4638;SDS011;2332;38.646;-9.154;2023-04-06T07:24:35;12.60;;;4.73;;
4638;SDS011;2332;38.646;-9.154;2023-04-06T07:27:00;12.90;;;4.77;;
4638;SDS011;2332;38.646;-9.154;2023-04-06T07:29:28;9.47;;;5.00;;
4638;SDS011;2332;38.646;-9.154;2023-04-06T07:31:54;10.70;;;4.60;;
4638;SDS011;2332;38.646;-9.154;2023-04-06T07:34:20;15.97;;;8.77;;
4638;SDS011;2332;38.646;-9.154;2023-04-06T07:36:45;7.60;;;4.40;;
4638;SDS011;2332;38.646;-9.154;2023-04-06T07:39:10;10.53;;;4.27;;
4638;SDS011;2332;38.646;-9.154;2023-04-06T07:41:36;15.17;;;5.23;;
4638;SDS011;2332;38.646;-9.154;2023-04-06T07:44:01;4.70;;;3.93;;
4638;SDS011;2332;38.646;-9.154;2023-04-06T07:46:27;12.50;;;4.07;;
4638;SDS011;2332;38.646;-9.154;2023-04-06T07:48:52;14.70;;;4.47;;
4638;SDS011;2332;38.646;-9.154;2023-04-06T07:51:18;10.60;;;4.40;;
4638;SDS011;2332;38.646;-9.154;2023-04-06T07:53:43;11.70;;;4.77;;
4638;SDS011;2332;38.646;-9.154;2023-04-06T07:56:09;6.70;;;4.53;;
4638;SDS011;2332;38.646;-9.154;2023-04-06T07:58:34;14.10;;;4.47;;
4638;SDS011;2332;38.646;-9.154;2023-04-06T08:01:00;13.17;;;4.50;;
4638;SDS011;2332;38.646;-9.154;2023-04-06T08:03:26;9.70;;;4.30;;
4638;SDS011;2332;38.646;-9.154;2023-04-06T08:05:51;7.43;;;4.37;;
4638;SDS011;2332;38.646;-9.154;2023-04-06T08:08:17;26.67;;;5.20;;
4638;SDS011;2332;38.646;-9.154;2023-04-06T08:10:43;6.77;;;4.63;;
4638;SDS011;2332;38.646;-9.154;2023-04-06T08:13:08;9.80;;;5.13;;
4638;SDS011;2332;38.646;-9.154;2023-04-06T08:15:34;9.30;;;5.17;;
4638;SDS011;2332;38.646;-9.154;2023-04-06T08:17:59;27.47;;;5.80;;
4638;SDS011;2332;38.646;-9.154;2023-04-06T08:20:25;8.80;;;4.80;;
4638;SDS011;2332;38.646;-9.154;2023-04-06T08:22:51;14.93;;;4.40;;
4638;SDS011;2332;38.646;-9.154;2023-04-06T08:25:16;13.20;;;4.40;;
4638;SDS011;2332;38.646;-9.154;2023-04-06T08:27:41;4.40;;;3.83;;
4638;SDS011;2332;38.646;-9.154;2023-04-06T08:30:07;8.90;;;3.80;;
4638;SDS011;2332;38.646;-9.154;2023-04-06T08:32:32;6.87;;;3.50;;
4638;SDS011;2332;38.646;-9.154;2023-04-06T08:34:58;9.13;;;3.57;;
4638;SDS011;2332;38.646;-9.154;2023-04-06T08:37:24;11.43;;;3.63;;
4638;SDS011;2332;38.646;-9.154;2023-04-06T08:39:50;9.27;;;3.50;;
4638;SDS011;2332;38.646;-9.154;2023-04-06T08:42:19;6.83;;;3.60;;
4638;SDS011;2332;38.646;-9.154;2023-04-06T08:44:44;11.43;;;4.27;;
4638;SDS011;2332;38.646;-9.154;2023-04-06T08:47:11;9.83;;;4.00;;
4638;SDS011;2332;38.646;-9.154;2023-04-06T08:49:37;11.23;;;3.80;;
4638;SDS011;2332;38.646;-9.154;2023-04-06T08:52:02;8.63;;;3.23;;
4638;SDS011;2332;38.646;-9.154;2023-04-06T08:54:28;12.60;;;3.40;;
4638;SDS011;2332;38.646;-9.154;2023-04-06T08:56:53;11.13;;;3.63;;
4638;SDS011;2332;38.646;-9.154;2023-04-06T08:59:19;6.23;;;2.90;;
4638;SDS011;2332;38.646;-9.154;2023-04-06T09:01:44;4.83;;;3.30;;
4638;SDS011;2332;38.646;-9.154;2023-04-06T09:04:11;4.67;;;3.40;;
4638;SDS011;2332;38.646;-9.154;2023-04-06T09:06:36;11.93;;;3.80;;
4638;SDS011;2332;38.646;-9.154;2023-04-06T09:09:02;19.20;;;4.53;;
4638;SDS011;2332;38.646;-9.154;2023-04-06T09:11:27;6.40;;;3.30;;
4638;SDS011;2332;38.646;-9.154;2023-04-06T09:13:54;8.50;;;3.43;;
4638;SDS011;2332;38.646;-9.154;2023-04-06T09:16:20;9.20;;;3.90;;
4638;SDS011;2332;38.646;-9.154;2023-04-06T09:18:46;4.73;;;3.23;;
4638;SDS011;2332;38.646;-9.154;2023-04-06T09:21:11;7.40;;;3.40;;
4638;SDS011;2332;38.646;-9.154;2023-04-06T09:23:37;7.70;;;3.33;;
4638;SDS011;2332;38.646;-9.154;2023-04-06T09:26:13;7.80;;;4.00;;
4638;SDS011;2332;38.646;-9.154;2023-04-06T09:31:07;7.30;;;4.23;;
4638;SDS011;2332;38.646;-9.154;2023-04-06T09:33:36;6.47;;;3.50;;
4638;SDS011;2332;38.646;-9.154;2023-04-06T09:36:02;9.13;;;3.20;;
4638;SDS011;2332;38.646;-9.154;2023-04-06T09:38:28;10.23;;;3.30;;
4638;SDS011;2332;38.646;-9.154;2023-04-06T09:40:53;10.50;;;3.70;;
4638;SDS011;2332;38.646;-9.154;2023-04-06T09:43:28;7.60;;;3.00;;
4638;SDS011;2332;38.646;-9.154;2023-04-06T09:45:54;8.73;;;3.60;;
4638;SDS011;2332;38.646;-9.154;2023-04-06T09:48:20;4.73;;;3.23;;
4638;SDS011;2332;38.646;-9.154;2023-04-06T09:50:49;11.20;;;3.80;;
4638;SDS011;2332;38.646;-9.154;2023-04-06T09:53:16;9.50;;;3.40;;
4638;SDS011;2332;38.646;-9.154;2023-04-06T09:55:44;10.73;;;3.63;;
4638;SDS011;2332;38.646;-9.154;2023-04-06T09:58:12;10.90;;;3.47;;
4638;SDS011;2332;38.646;-9.154;2023-04-06T10:01:20;16.90;;;3.27;;
4638;SDS011;2332;38.646;-9.154;2023-04-06T10:06:02;10.87;;;2.77;;
4638;SDS011;2332;38.646;-9.154;2023-04-06T10:08:29;6.87;;;2.40;;
4638;SDS011;2332;38.646;-9.154;2023-04-06T10:10:56;8.10;;;2.87;;
4638;SDS011;2332;38.646;-9.154;2023-04-06T10:13:22;3.70;;;2.60;;
4638;SDS011;2332;38.646;-9.154;2023-04-06T10:15:48;5.80;;;2.63;;
4638;SDS011;2332;38.646;-9.154;2023-04-06T10:18:14;10.67;;;2.70;;
4638;SDS011;2332;38.646;-9.154;2023-04-06T10:20:48;7.73;;;3.07;;
4638;SDS011;2332;38.646;-9.154;2023-04-06T10:28:18;4.73;;;1.80;;
4638;SDS011;2332;38.646;-9.154;2023-04-06T10:30:44;8.80;;;2.07;;
4638;SDS011;2332;38.646;-9.154;2023-04-06T10:35:38;3.90;;;1.90;;
4638;SDS011;2332;38.646;-9.154;2023-04-06T10:38:04;10.97;;;2.20;;
4638;SDS011;2332;38.646;-9.154;2023-04-06T10:40:30;3.77;;;2.00;;
4638;SDS011;2332;38.646;-9.154;2023-04-06T10:45:43;7.80;;;2.27;;
4638;SDS011;2332;38.646;-9.154;2023-04-06T10:48:15;8.20;;;3.67;;
4638;SDS011;2332;38.646;-9.154;2023-04-06T10:50:41;4.33;;;2.27;;
4638;SDS011;2332;38.646;-9.154;2023-04-06T10:53:07;4.57;;;2.17;;
4638;SDS011;2332;38.646;-9.154;2023-04-06T10:55:33;3.80;;;2.23;;
4638;SDS011;2332;38.646;-9.154;2023-04-06T10:57:59;3.30;;;2.60;;
4638;SDS011;2332;38.646;-9.154;2023-04-06T11:00:24;3.00;;;2.00;;
4638;SDS011;2332;38.646;-9.154;2023-04-06T11:02:50;4.37;;;2.17;;
4638;SDS011;2332;38.646;-9.154;2023-04-06T11:05:15;15.77;;;2.67;;
4638;SDS011;2332;38.646;-9.154;2023-04-06T11:07:44;14.10;;;2.37;;
4638;SDS011;2332;38.646;-9.154;2023-04-06T11:10:10;8.00;;;1.93;;
4638;SDS011;2332;38.646;-9.154;2023-04-06T11:12:35;10.33;;;2.77;;
4638;SDS011;2332;38.646;-9.154;2023-04-06T11:15:01;9.73;;;2.43;;
4638;SDS011;2332;38.646;-9.154;2023-04-06T11:17:29;4.93;;;2.10;;
4638;SDS011;2332;38.646;-9.154;2023-04-06T11:19:55;7.03;;;2.17;;
4638;SDS011;2332;38.646;-9.154;2023-04-06T11:22:20;5.13;;;2.40;;
4638;SDS011;2332;38.646;-9.154;2023-04-06T11:24:46;10.17;;;2.40;;
4638;SDS011;2332;38.646;-9.154;2023-04-06T11:27:14;6.47;;;2.40;;
4638;SDS011;2332;38.646;-9.154;2023-04-06T11:29:43;4.97;;;2.10;;
4638;SDS011;2332;38.646;-9.154;2023-04-06T11:32:09;2.53;;;1.63;;
4638;SDS011;2332;38.646;-9.154;2023-04-06T11:34:37;9.77;;;2.20;;
4638;SDS011;2332;38.646;-9.154;2023-04-06T11:37:07;6.67;;;2.13;;
4638;SDS011;2332;38.646;-9.154;2023-04-06T11:39:37;8.93;;;2.20;;
4638;SDS011;2332;38.646;-9.154;2023-04-06T11:42:03;12.03;;;2.23;;
4638;SDS011;2332;38.646;-9.154;2023-04-06T11:44:31;3.50;;;1.87;;
4638;SDS011;2332;38.646;-9.154;2023-04-06T11:46:56;3.73;;;1.80;;
4638;SDS011;2332;38.646;-9.154;2023-04-06T11:49:26;5.10;;;2.10;;
4638;SDS011;2332;38.646;-9.154;2023-04-06T11:51:51;6.53;;;1.60;;
4638;SDS011;2332;38.646;-9.154;2023-04-06T11:54:16;5.23;;;1.90;;
4638;SDS011;2332;38.646;-9.154;2023-04-06T11:56:42;9.20;;;7.30;;
4638;SDS011;2332;38.646;-9.154;2023-04-06T11:59:11;6.90;;;1.87;;
4638;SDS011;2332;38.646;-9.154;2023-04-06T12:01:44;13.60;;;6.57;;
4638;SDS011;2332;38.646;-9.154;2023-04-06T12:04:10;3.33;;;1.70;;
4638;SDS011;2332;38.646;-9.154;2023-04-06T12:06:35;7.90;;;1.40;;
4638;SDS011;2332;38.646;-9.154;2023-04-06T12:09:00;8.30;;;2.30;;
4638;SDS011;2332;38.646;-9.154;2023-04-06T12:11:26;2.13;;;1.37;;
4638;SDS011;2332;38.646;-9.154;2023-04-06T12:13:51;5.33;;;2.13;;
4638;SDS011;2332;38.646;-9.154;2023-04-06T12:16:17;2.07;;;1.83;;
4638;SDS011;2332;38.646;-9.154;2023-04-06T12:18:44;3.30;;;2.00;;
4638;SDS011;2332;38.646;-9.154;2023-04-06T12:21:09;7.60;;;3.00;;
4638;SDS011;2332;38.646;-9.154;2023-04-06T12:23:35;3.70;;;2.80;;
4638;SDS011;2332;38.646;-9.154;2023-04-06T12:26:01;4.13;;;2.23;;
4638;SDS011;2332;38.646;-9.154;2023-04-06T12:28:27;11.03;;;3.90;;
4638;SDS011;2332;38.646;-9.154;2023-04-06T12:30:52;6.13;;;2.30;;
4638;SDS011;2332;38.646;-9.154;2023-04-06T12:33:18;11.07;;;6.23;;
4638;SDS011;2332;38.646;-9.154;2023-04-06T12:35:43;5.10;;;1.87;;
4638;SDS011;2332;38.646;-9.154;2023-04-06T12:38:09;3.87;;;2.80;;
4638;SDS011;2332;38.646;-9.154;2023-04-06T12:40:37;5.23;;;2.70;;
4638;SDS011;2332;38.646;-9.154;2023-04-06T12:43:03;7.37;;;3.13;;
4638;SDS011;2332;38.646;-9.154;2023-04-06T12:45:30;7.27;;;2.07;;
4638;SDS011;2332;38.646;-9.154;2023-04-06T12:47:56;3.27;;;1.90;;
4638;SDS011;2332;38.646;-9.154;2023-04-06T12:50:22;4.00;;;1.90;;
4638;SDS011;2332;38.646;-9.154;2023-04-06T12:52:47;3.70;;;1.93;;
4638;SDS011;2332;38.646;-9.154;2023-04-06T12:55:12;2.40;;;1.20;;
4638;SDS011;2332;38.646;-9.154;2023-04-06T12:57:38;2.03;;;1.50;;
4638;SDS011;2332;38.646;-9.154;2023-04-06T13:00:04;4.93;;;1.20;;
4638;SDS011;2332;38.646;-9.154;2023-04-06T13:02:30;1.20;;;1.00;;
4638;SDS011;2332;38.646;-9.154;2023-04-06T13:04:55;3.60;;;1.10;;
4638;SDS011;2332;38.646;-9.154;2023-04-06T13:07:21;20.47;;;2.10;;
4638;SDS011;2332;38.646;-9.154;2023-04-06T13:09:46;1.57;;;1.30;;
4638;SDS011;2332;38.646;-9.154;2023-04-06T13:12:14;3.60;;;1.23;;
4638;SDS011;2332;38.646;-9.154;2023-04-06T13:14:40;1.80;;;0.90;;
4638;SDS011;2332;38.646;-9.154;2023-04-06T13:17:05;3.40;;;0.87;;
4638;SDS011;2332;38.646;-9.154;2023-04-06T13:19:34;2.60;;;0.80;;
4638;SDS011;2332;38.646;-9.154;2023-04-06T13:21:59;3.57;;;0.87;;
4638;SDS011;2332;38.646;-9.154;2023-04-06T13:24:25;1.00;;;0.90;;
4638;SDS011;2332;38.646;-9.154;2023-04-06T13:26:50;1.23;;;1.00;;
4638;SDS011;2332;38.646;-9.154;2023-04-06T13:29:16;1.57;;;0.87;;
4638;SDS011;2332;38.646;-9.154;2023-04-06T13:31:41;0.70;;;0.70;;
4638;SDS011;2332;38.646;-9.154;2023-04-06T13:34:06;1.20;;;1.10;;
4638;SDS011;2332;38.646;-9.154;2023-04-06T13:36:32;4.70;;;1.00;;
4638;SDS011;2332;38.646;-9.154;2023-04-06T13:38:57;3.70;;;1.00;;
4638;SDS011;2332;38.646;-9.154;2023-04-06T13:41:24;1.67;;;1.17;;
4638;SDS011;2332;38.646;-9.154;2023-04-06T13:43:50;1.20;;;0.93;;
4638;SDS011;2332;38.646;-9.154;2023-04-06T13:46:18;1.23;;;1.13;;
4638;SDS011;2332;38.646;-9.154;2023-04-06T13:48:44;4.33;;;1.30;;
4638;SDS011;2332;38.646;-9.154;2023-04-06T13:51:10;1.00;;;1.00;;
4638;SDS011;2332;38.646;-9.154;2023-04-06T13:53:35;2.37;;;1.40;;
4638;SDS011;2332;38.646;-9.154;2023-04-06T13:56:00;2.70;;;1.17;;
4638;SDS011;2332;38.646;-9.154;2023-04-06T13:58:26;1.10;;;1.10;;
4638;SDS011;2332;38.646;-9.154;2023-04-06T14:00:51;3.53;;;1.40;;
4638;SDS011;2332;38.646;-9.154;2023-04-06T14:03:17;1.03;;;1.00;;
4638;SDS011;2332;38.646;-9.154;2023-04-06T14:05:44;4.60;;;1.43;;
4638;SDS011;2332;38.646;-9.154;2023-04-06T14:08:09;1.20;;;1.10;;
4638;SDS011;2332;38.646;-9.154;2023-04-06T14:10:41;2.60;;;1.30;;
4638;SDS011;2332;38.646;-9.154;2023-04-06T14:13:07;5.80;;;1.27;;
4638;SDS011;2332;38.646;-9.154;2023-04-06T14:15:32;4.70;;;1.10;;
4638;SDS011;2332;38.646;-9.154;2023-04-06T14:17:58;1.97;;;1.03;;
4638;SDS011;2332;38.646;-9.154;2023-04-06T14:20:23;3.23;;;1.20;;
4638;SDS011;2332;38.646;-9.154;2023-04-06T14:22:49;5.53;;;1.37;;
4638;SDS011;2332;38.646;-9.154;2023-04-06T14:25:16;3.13;;;1.10;;
4638;SDS011;2332;38.646;-9.154;2023-04-06T14:27:42;1.10;;;1.10;;
4638;SDS011;2332;38.646;-9.154;2023-04-06T14:30:08;2.63;;;1.10;;
4638;SDS011;2332;38.646;-9.154;2023-04-06T14:32:33;1.33;;;1.20;;
4638;SDS011;2332;38.646;-9.154;2023-04-06T14:34:59;1.20;;;1.20;;
4638;SDS011;2332;38.646;-9.154;2023-04-06T14:37:24;1.40;;;1.30;;
4638;SDS011;2332;38.646;-9.154;2023-04-06T14:39:50;1.23;;;1.23;;
4638;SDS011;2332;38.646;-9.154;2023-04-06T14:42:15;3.70;;;1.23;;
4638;SDS011;2332;38.646;-9.154;2023-04-06T14:44:40;1.47;;;1.10;;
4638;SDS011;2332;38.646;-9.154;2023-04-06T14:47:08;3.00;;;1.10;;
4638;SDS011;2332;38.646;-9.154;2023-04-06T14:49:34;1.47;;;0.90;;
4638;SDS011;2332;38.646;-9.154;2023-04-06T14:51:59;1.00;;;1.00;;
4638;SDS011;2332;38.646;-9.154;2023-04-06T14:54:25;1.30;;;1.20;;
4638;SDS011;2332;38.646;-9.154;2023-04-06T14:56:50;2.77;;;1.30;;
4638;SDS011;2332;38.646;-9.154;2023-04-06T14:59:15;1.37;;;1.30;;
4638;SDS011;2332;38.646;-9.154;2023-04-06T15:01:41;2.10;;;1.17;;
4638;SDS011;2332;38.646;-9.154;2023-04-06T15:04:06;1.30;;;1.20;;